General Aviation Weather

Text Reports

Enter one or more of the following location identifiers separated by a space:

Zip Code, Four-Character ICAO or Three-Character IATA airport codes.

METAR - Aviation Routine Weather Report
KAFJ - Washington, Pennsylvania
Updated at 8:35 AM GMT on July 25, 2016 (4:35 AM EDT):
METAR KAFJ 250835Z AUTO 00000KT 2 1/2SM CLR 21/19 A3001 RMK AO1
TAF - Terminal Area Forecast
KAFJ - Washington, Pennsylvania
Updated at 8:35 AM GMT on July 25, 2016 (4:35 AM EDT):
No TAF is currently available for this location.
Decoded:
No decoded TAF is available.
PIREP - Pilot Weather Report
KAFJ - Washington, Pennsylvania
Updated at 8:35 AM GMT on July 25, 2016 (4:35 AM EDT):
No PIREP is currently available for this location.
AIRMET - Airmens Meteorological Information
KAFJ - Washington, Pennsylvania
Updated at 8:35 AM GMT on July 25, 2016 (4:35 AM EDT):
No AIRMET is currently available for this location.
SIGMET - Significant Meteorological Information
KAFJ - Washington, Pennsylvania
Updated at 8:35 AM GMT on July 25, 2016 (4:35 AM EDT):
No SIGMET is currently available for this location.
NOTAM - Notice to Airmen
KAFJ - Washington, Pennsylvania
Updated at 8:35 AM GMT on July 25, 2016 (4:35 AM EDT):
No NOTAM is currently available for this location.
Forecast Area
KAFJ - Washington, Pennsylvania
Updated at 8:35 AM GMT on July 25, 2016 (4:35 AM EDT):
No NOTAM is currently available for this location.
Aviation Weather Maps